Time;durP1;ratioP1;P1;durP2;ratioP2;P2;SDS_P1;SDS_P2;PMS_P1;PMS_P2;Temp;Humidity;BMP_temperature;BMP_pressure;BME280_temperature;BME280_humidity;BME280_pressure;Samples;Min_cycle;Max_cycle;Signal;HPM_P1;HPM_P2
2023/03/18 00:00:10;;;;;;;3.45;1.80;;;10.70;1.00;;;;;;6246667;23;20024;-89
2023/03/18 00:02:57;;;;;;;4.97;1.95;;;10.70;1.00;;;;;;6248287;23;20039;-88
2023/03/18 00:05:45;;;;;;;5.50;2.10;;;10.80;1.00;;;;;;6244853;23;20054;-88
2023/03/18 00:08:32;;;;;;;2.90;1.65;;;10.80;1.00;;;;;;6245803;23;20453;-88
2023/03/18 00:11:20;;;;;;;4.35;2.00;;;10.90;1.00;;;;;;6257738;23;20035;-86
2023/03/18 00:14:08;;;;;;;10.75;4.10;;;11.00;1.00;;;;;;6260682;23;20031;-87
2023/03/18 00:16:56;;;;;;;9.48;3.58;;;11.00;1.00;;;;;;6251351;23;20031;-87
2023/03/18 00:19:45;;;;;;;11.15;4.20;;;11.00;1.00;;;;;;6245141;23;20028;-88
2023/03/18 00:22:34;;;;;;;9.95;3.50;;;10.90;1.00;;;;;;6245200;23;20117;-88
2023/03/18 00:25:22;;;;;;;13.13;3.42;;;10.80;1.00;;;;;;6249002;23;20095;-87
2023/03/18 00:28:12;;;;;;;7.50;1.95;;;10.80;1.00;;;;;;6247611;23;20028;-87
2023/03/18 00:31:17;;;;;;;5.43;2.17;;;10.80;1.00;;;;;;6260527;23;20004;-87
2023/03/18 00:34:05;;;;;;;4.70;2.03;;;10.90;1.00;;;;;;6240659;23;20030;-88
2023/03/18 00:36:55;;;;;;;7.95;2.00;;;10.90;1.00;;;;;;6257571;23;20020;-85
2023/03/18 00:39:45;;;;;;;3.63;2.00;;;11.00;1.00;;;;;;6248149;22;20027;-85
2023/03/18 00:42:37;;;;;;;6.22;2.38;;;11.00;1.00;;;;;;6250879;22;20038;-83
2023/03/18 00:45:25;;;;;;;5.32;2.00;;;11.00;1.00;;;;;;6267618;22;20024;-88
2023/03/18 00:48:12;;;;;;;3.63;2.40;;;10.90;1.00;;;;;;6263593;23;20035;-87
2023/03/18 00:50:59;;;;;;;5.80;2.60;;;10.90;1.00;;;;;;6262888;23;20020;-87
2023/03/18 00:53:50;;;;;;;7.53;2.38;;;10.90;1.00;;;;;;6230640;23;20031;-88
2023/03/18 00:56:38;;;;;;;3.67;1.88;;;10.80;1.00;;;;;;6223762;23;20024;-89
2023/03/18 00:59:26;;;;;;;4.80;2.25;;;10.90;1.00;;;;;;6245463;23;20035;-88
2023/03/18 01:02:13;;;;;;;5.63;2.20;;;10.90;1.00;;;;;;6246455;23;20035;-87
2023/03/18 01:05:02;;;;;;;6.95;1.90;;;10.90;1.00;;;;;;6248514;23;20338;-89
2023/03/18 01:07:50;;;;;;;3.45;2.08;;;10.90;1.00;;;;;;6245511;23;20024;-86
2023/03/18 01:10:40;;;;;;;4.25;1.90;;;10.90;1.00;;;;;;6244776;23;20020;-86
2023/03/18 01:13:28;;;;;;;7.55;2.38;;;11.00;1.00;;;;;;6246968;23;20051;-87
2023/03/18 01:16:16;;;;;;;5.13;2.05;;;10.90;1.00;;;;;;6247455;23;20020;-86
2023/03/18 01:19:04;;;;;;;4.47;2.50;;;11.00;1.00;;;;;;6245102;23;20488;-88
2023/03/18 01:21:53;;;;;;;5.13;2.10;;;11.00;1.00;;;;;;6245550;23;20032;-89
2023/03/18 01:24:45;;;;;;;2.78;1.60;;;10.90;1.00;;;;;;6245488;23;20028;-87
2023/03/18 01:27:32;;;;;;;3.08;1.40;;;10.90;1.00;;;;;;6244481;23;20085;-87
2023/03/18 01:30:19;;;;;;;6.03;2.00;;;10.90;1.00;;;;;;6245439;23;20347;-88
2023/03/18 01:33:07;;;;;;;4.85;2.00;;;10.90;1.00;;;;;;6246102;23;20077;-88
2023/03/18 01:36:01;;;;;;;3.65;1.75;;;11.00;1.00;;;;;;6246253;23;20099;-89
2023/03/18 01:38:48;;;;;;;6.30;1.92;;;10.90;1.00;;;;;;6244164;23;20055;-88
2023/03/18 01:41:36;;;;;;;3.10;1.98;;;10.90;1.00;;;;;;6243488;23;20039;-88
2023/03/18 01:44:26;;;;;;;2.90;1.60;;;10.90;1.00;;;;;;6247105;23;20039;-89
2023/03/18 01:47:16;;;;;;;6.38;1.60;;;10.90;1.00;;;;;;6245089;23;20039;-89
2023/03/18 01:50:03;;;;;;;3.83;1.90;;;10.90;1.00;;;;;;6246271;23;20020;-87
2023/03/18 01:52:58;;;;;;;4.65;1.80;;;10.80;1.00;;;;;;6245823;23;20028;-88
2023/03/18 01:55:49;;;;;;;2.78;1.73;;;10.80;1.00;;;;;;6223688;23;20094;-88
2023/03/18 01:58:43;;;;;;;5.88;1.83;;;10.70;1.00;;;;;;6223443;23;20056;-89
2023/03/18 02:01:38;;;;;;;6.20;1.52;;;10.70;1.00;;;;;;6242436;23;20070;-88
2023/03/18 02:04:31;;;;;;;2.90;1.45;;;10.60;1.00;;;;;;6245467;23;20024;-89
2023/03/18 02:07:20;;;;;;;5.43;1.50;;;10.50;1.00;;;;;;6224670;23;20032;-88
2023/03/18 02:10:22;;;;;;;3.78;1.60;;;10.50;1.00;;;;;;6246300;23;20370;-87
2023/03/18 02:13:11;;;;;;;3.40;1.67;;;10.50;1.00;;;;;;6247334;23;20031;-87
2023/03/18 02:16:05;;;;;;;4.45;1.70;;;10.50;1.00;;;;;;6245395;23;20028;-87
2023/03/18 02:18:58;;;;;;;5.20;1.65;;;10.40;1.00;;;;;;6245910;23;20043;-86
2023/03/18 02:22:00;;;;;;;2.35;1.70;;;10.40;1.00;;;;;;6243825;23;20103;-88
2023/03/18 02:25:27;;;;;;;4.80;1.80;;;10.40;1.00;;;;;;6247671;23;20024;-87
2023/03/18 02:28:20;;;;;;;4.35;1.50;;;10.40;1.00;;;;;;6247525;23;20028;-89
2023/03/18 02:31:11;;;;;;;6.10;1.83;;;10.40;1.00;;;;;;6223994;23;20146;-88
2023/03/18 02:34:01;;;;;;;2.42;1.35;;;10.40;1.00;;;;;;6247220;23;20403;-85
2023/03/18 02:36:48;;;;;;;2.75;1.50;;;10.50;1.00;;;;;;6248440;23;20362;-87
2023/03/18 02:39:36;;;;;;;9.65;1.70;;;10.50;1.00;;;;;;6247851;23;20024;-87
2023/03/18 02:42:31;;;;;;;4.45;1.40;;;10.40;1.00;;;;;;6248010;23;20035;-88
2023/03/18 02:45:49;;;;;;;2.67;1.50;;;10.50;1.00;;;;;;6248677;23;20024;-87
2023/03/18 02:48:41;;;;;;;3.05;1.40;;;10.50;1.00;;;;;;6226926;23;20028;-87
2023/03/18 02:51:28;;;;;;;4.60;1.70;;;10.60;1.00;;;;;;6246334;23;20028;-86
2023/03/18 02:54:19;;;;;;;5.03;1.50;;;10.60;1.00;;;;;;6246830;23;20024;-87
2023/03/18 02:57:07;;;;;;;2.63;1.55;;;10.50;1.00;;;;;;6251889;23;20024;-87
2023/03/18 02:59:54;;;;;;;5.97;1.80;;;10.50;1.00;;;;;;6257621;23;20047;-87
2023/03/18 03:02:44;;;;;;;6.07;1.60;;;10.50;1.00;;;;;;6250109;23;20028;-87
2023/03/18 03:05:36;;;;;;;6.93;1.60;;;10.40;1.00;;;;;;6246843;23;20031;-86
2023/03/18 03:08:24;;;;;;;4.45;1.75;;;10.40;1.00;;;;;;6225129;23;20032;-86
2023/03/18 03:11:15;;;;;;;4.13;1.80;;;10.40;1.00;;;;;;6245724;23;20072;-86
2023/03/18 03:14:02;;;;;;;4.28;1.58;;;10.40;1.00;;;;;;6244552;23;20095;-86
2023/03/18 03:16:52;;;;;;;4.35;1.70;;;10.50;1.00;;;;;;6245097;23;20043;-85
2023/03/18 03:19:42;;;;;;;6.20;1.67;;;10.40;1.00;;;;;;6245678;23;20090;-87
2023/03/18 03:22:29;;;;;;;4.78;2.10;;;10.30;1.00;;;;;;6247385;23;20058;-87
2023/03/18 03:25:17;;;;;;;2.72;1.50;;;10.20;1.00;;;;;;6246646;23;20489;-86
2023/03/18 03:28:05;;;;;;;5.25;1.58;;;10.10;1.00;;;;;;6244973;23;20103;-86
2023/03/18 03:30:54;;;;;;;7.97;2.08;;;10.10;1.00;;;;;;6245166;23;20024;-86
2023/03/18 03:33:44;;;;;;;4.72;2.00;;;10.10;1.00;;;;;;6245832;23;20028;-86
2023/03/18 03:36:32;;;;;;;4.45;1.92;;;10.00;1.00;;;;;;6245536;23;20043;-87
2023/03/18 03:39:19;;;;;;;7.28;1.40;;;9.90;1.00;;;;;;6247438;23;20051;-87
2023/03/18 03:42:11;;;;;;;5.10;1.90;;;9.90;1.00;;;;;;6246666;23;20080;-88
2023/03/18 03:44:58;;;;;;;6.68;1.90;;;9.80;1.00;;;;;;6224926;23;20106;-90
2023/03/18 03:47:46;;;;;;;4.47;1.67;;;9.70;1.00;;;;;;6246439;23;20078;-88
2023/03/18 03:50:34;;;;;;;4.60;1.90;;;9.60;1.00;;;;;;6226604;23;20035;-87
2023/03/18 03:53:23;;;;;;;5.57;1.42;;;9.60;1.00;;;;;;6225044;23;20028;-85
2023/03/18 03:56:11;;;;;;;4.10;1.80;;;9.60;1.00;;;;;;6225507;23;20047;-85
2023/03/18 03:58:59;;;;;;;5.10;1.52;;;9.60;1.00;;;;;;6229250;23;20028;-87
2023/03/18 04:01:48;;;;;;;3.88;1.55;;;9.60;1.00;;;;;;6244586;23;20039;-86
2023/03/18 04:04:36;;;;;;;4.93;2.08;;;9.50;1.00;;;;;;6223368;23;20380;-88
2023/03/18 04:07:23;;;;;;;6.55;1.85;;;9.40;1.00;;;;;;6245600;23;20083;-85
2023/03/18 04:10:13;;;;;;;4.72;1.60;;;9.40;1.00;;;;;;6247189;23;20073;-86
2023/03/18 04:13:02;;;;;;;4.25;1.70;;;9.30;1.00;;;;;;6245349;23;20024;-86
2023/03/18 04:15:49;;;;;;;4.28;1.77;;;9.20;1.00;;;;;;6226978;23;20028;-85
2023/03/18 04:18:36;;;;;;;3.53;2.00;;;9.30;1.00;;;;;;6245930;23;20411;-86
2023/03/18 04:21:26;;;;;;;5.15;1.60;;;9.30;1.00;;;;;;6243747;23;20039;-87
2023/03/18 04:24:13;;;;;;;7.88;1.50;;;9.40;1.00;;;;;;6243913;23;20085;-86
2023/03/18 04:27:00;;;;;;;5.25;1.80;;;9.40;1.00;;;;;;6244681;23;20024;-86
2023/03/18 04:29:48;;;;;;;4.90;1.73;;;9.50;1.00;;;;;;6242348;23;21045;-85
2023/03/18 04:32:35;;;;;;;5.72;1.45;;;9.40;1.00;;;;;;6242818;23;20052;-87
2023/03/18 04:35:22;;;;;;;5.22;1.90;;;9.40;1.00;;;;;;6244180;23;20039;-86
2023/03/18 04:38:10;;;;;;;5.15;2.00;;;9.30;1.00;;;;;;6241869;23;20031;-86
2023/03/18 04:40:58;;;;;;;3.95;1.70;;;9.30;1.00;;;;;;6245135;23;20408;-86
2023/03/18 04:43:45;;;;;;;4.15;2.03;;;9.20;1.00;;;;;;6243803;23;20040;-86
2023/03/18 04:46:33;;;;;;;4.68;2.08;;;9.20;1.00;;;;;;6242945;23;20355;-86
2023/03/18 04:49:23;;;;;;;5.18;2.00;;;9.00;1.00;;;;;;6246404;23;20502;-87
2023/03/18 04:52:11;;;;;;;10.10;1.77;;;8.90;1.00;;;;;;6246106;23;20055;-85
2023/03/18 04:55:02;;;;;;;2.13;1.60;;;8.80;1.00;;;;;;6246222;23;20028;-87
2023/03/18 04:57:49;;;;;;;9.88;1.73;;;8.80;1.00;;;;;;6245080;23;20028;-85
2023/03/18 05:00:39;;;;;;;7.90;2.00;;;8.70;1.00;;;;;;6244083;23;20024;-87
2023/03/18 05:03:42;;;;;;;6.30;2.10;;;8.80;1.00;;;;;;6242092;23;20293;-87
2023/03/18 05:06:32;;;;;;;4.72;1.73;;;8.90;1.00;;;;;;6223253;23;20028;-84
2023/03/18 05:09:19;;;;;;;7.40;2.10;;;8.90;1.00;;;;;;6221354;23;20028;-86
2023/03/18 05:12:14;;;;;;;3.33;2.03;;;8.80;1.00;;;;;;6245212;23;20474;-86
2023/03/18 05:15:03;;;;;;;2.78;1.80;;;8.70;1.00;;;;;;6241900;23;20051;-88
2023/03/18 05:17:53;;;;;;;7.90;2.03;;;8.70;1.00;;;;;;6195169;23;1138741;-87
2023/03/18 05:20:45;;;;;;;8.32;2.15;;;8.70;1.00;;;;;;6243818;23;20243;-87
2023/03/18 05:23:33;;;;;;;3.08;2.10;;;8.60;1.00;;;;;;6245060;23;20028;-85
2023/03/18 05:26:22;;;;;;;6.40;1.92;;;8.60;1.00;;;;;;6246832;23;20048;-85
2023/03/18 05:29:09;;;;;;;7.72;1.73;;;8.60;1.00;;;;;;6245415;23;20028;-83
2023/03/18 05:31:56;;;;;;;6.00;2.00;;;8.60;1.00;;;;;;6243817;23;20024;-86
2023/03/18 05:34:44;;;;;;;5.80;1.70;;;8.60;1.00;;;;;;6243357;23;20111;-89
2023/03/18 05:37:31;;;;;;;10.43;2.08;;;8.60;1.00;;;;;;6224293;23;20424;-88
2023/03/18 05:40:19;;;;;;;5.78;2.03;;;8.60;1.00;;;;;;6223776;23;20035;-90
2023/03/18 05:43:06;;;;;;;6.20;2.03;;;8.50;1.00;;;;;;6246727;23;20067;-88
2023/03/18 05:45:54;;;;;;;2.53;1.50;;;8.40;1.00;;;;;;6246362;23;20028;-86
2023/03/18 05:48:42;;;;;;;3.33;2.05;;;8.40;1.00;;;;;;6244550;23;20028;-87
2023/03/18 05:51:30;;;;;;;4.75;2.03;;;8.30;1.00;;;;;;6245237;23;20028;-87
2023/03/18 05:54:21;;;;;;;5.25;1.90;;;8.20;1.00;;;;;;6245439;23;20273;-88
2023/03/18 05:57:08;;;;;;;6.95;2.35;;;8.20;1.00;;;;;;6232017;23;20051;-86
2023/03/18 05:59:58;;;;;;;4.85;2.17;;;8.30;1.00;;;;;;6248649;23;20031;-87
2023/03/18 06:02:46;;;;;;;4.05;1.92;;;8.30;1.00;;;;;;6247057;23;20040;-86
2023/03/18 06:05:34;;;;;;;3.33;2.08;;;8.30;1.00;;;;;;6246855;23;20048;-87
2023/03/18 06:08:22;;;;;;;8.30;2.15;;;8.40;1.00;;;;;;6248801;23;20408;-88
2023/03/18 06:11:10;;;;;;;8.32;2.28;;;8.30;1.00;;;;;;6246270;23;20020;-85
2023/03/18 06:13:57;;;;;;;4.57;2.58;;;8.00;1.00;;;;;;6247779;23;20025;-85
2023/03/18 06:16:45;;;;;;;6.75;2.38;;;7.70;1.00;;;;;;6246659;23;20024;-85
2023/03/18 06:19:34;;;;;;;7.85;2.30;;;7.50;1.00;;;;;;6246530;23;20020;-86
2023/03/18 06:22:21;;;;;;;6.20;2.22;;;7.30;4.00;;;;;;6244975;23;20047;-84
2023/03/18 06:25:09;;;;;;;6.22;2.45;;;7.20;11.80;;;;;;6246198;23;20032;-85
2023/03/18 06:28:00;;;;;;;5.85;2.47;;;7.10;20.20;;;;;;6244318;23;20028;-85
2023/03/18 06:30:47;;;;;;;6.97;2.33;;;7.00;30.60;;;;;;6246345;23;20400;-85
2023/03/18 06:33:35;;;;;;;8.13;2.55;;;7.00;40.60;;;;;;6248717;23;20189;-89
2023/03/18 06:36:25;;;;;;;7.47;2.45;;;7.10;43.90;;;;;;6225392;23;20100;-91
2023/03/18 06:39:12;;;;;;;5.53;1.83;;;7.30;40.30;;;;;;6231359;23;20116;-89
2023/03/18 06:42:09;;;;;;;6.38;2.28;;;7.40;38.10;;;;;;6248445;23;20466;-90
2023/03/18 06:44:57;;;;;;;8.50;2.20;;;7.60;32.20;;;;;;6249875;23;20024;-88
2023/03/18 06:47:45;;;;;;;3.85;2.00;;;7.70;29.90;;;;;;6245978;23;20023;-86
2023/03/18 06:50:32;;;;;;;5.95;2.60;;;7.70;27.70;;;;;;6245982;23;20039;-88
2023/03/18 06:53:22;;;;;;;3.08;2.00;;;7.80;23.50;;;;;;6225509;23;20032;-87
2023/03/18 06:56:12;;;;;;;8.07;2.35;;;7.90;23.90;;;;;;6246473;23;20098;-87
2023/03/18 06:58:59;;;;;;;11.23;2.90;;;8.00;20.90;;;;;;6223424;23;20024;-88
2023/03/18 07:01:48;;;;;;;3.10;2.10;;;8.10;15.60;;;;;;6247383;23;20034;-88
2023/03/18 07:04:35;;;;;;;7.50;3.35;;;8.20;12.50;;;;;;6249244;23;20099;-86
2023/03/18 07:07:23;;;;;;;7.53;3.10;;;8.50;9.60;;;;;;6250016;23;20035;-89
2023/03/18 07:10:19;;;;;;;7.28;2.97;;;8.70;4.40;;;;;;6247758;23;20047;-88
2023/03/18 07:13:08;;;;;;;4.80;2.30;;;9.00;1.00;;;;;;6248953;23;20028;-87
2023/03/18 07:15:59;;;;;;;7.25;2.40;;;9.30;1.00;;;;;;6247600;23;20028;-88
2023/03/18 07:18:48;;;;;;;3.95;1.95;;;9.80;1.00;;;;;;6247526;23;20083;-88
2023/03/18 07:21:36;;;;;;;4.30;2.20;;;10.10;1.00;;;;;;6248365;23;20084;-88
2023/03/18 07:24:23;;;;;;;3.30;1.92;;;10.40;1.00;;;;;;6246486;23;20031;-89
2023/03/18 07:27:13;;;;;;;3.47;2.17;;;10.60;1.00;;;;;;6248115;23;20032;-89
2023/03/18 07:30:01;;;;;;;1.83;1.58;;;11.00;1.00;;;;;;6248252;23;20086;-88
2023/03/18 07:32:48;;;;;;;3.45;1.70;;;11.30;1.00;;;;;;6248646;23;20039;-89
2023/03/18 07:35:39;;;;;;;3.25;1.70;;;11.50;1.00;;;;;;6247291;23;20032;-87
2023/03/18 07:38:27;;;;;;;4.18;1.80;;;11.60;1.00;;;;;;6246562;23;20034;-88
2023/03/18 07:41:14;;;;;;;7.20;1.70;;;11.70;1.00;;;;;;6246976;23;20032;-91
2023/03/18 07:44:02;;;;;;;4.70;1.63;;;11.80;1.00;;;;;;6246224;23;20028;-89
2023/03/18 07:46:50;;;;;;;5.22;1.85;;;12.10;1.00;;;;;;6247679;23;20086;-90
2023/03/18 07:49:37;;;;;;;2.83;1.60;;;12.10;1.00;;;;;;6225952;23;20422;-92
2023/03/18 07:52:25;;;;;;;5.15;1.70;;;12.30;1.00;;;;;;6249986;23;20375;-88
2023/03/18 07:55:13;;;;;;;5.53;1.88;;;12.50;1.00;;;;;;6248287;23;20025;-90
2023/03/18 07:58:00;;;;;;;3.10;1.60;;;12.90;1.00;;;;;;6246376;23;20435;-87
2023/03/18 08:00:48;;;;;;;4.90;1.63;;;13.40;1.00;;;;;;6247241;23;20028;-86
2023/03/18 08:03:35;;;;;;;6.28;1.58;;;13.70;1.00;;;;;;6247606;23;20028;-89
2023/03/18 08:06:24;;;;;;;2.65;1.50;;;13.60;1.00;;;;;;6228606;23;20030;-90
2023/03/18 08:09:12;;;;;;;4.82;1.50;;;14.10;1.00;;;;;;6250196;23;20036;-90
2023/03/18 08:12:01;;;;;;;3.15;1.58;;;14.50;1.00;;;;;;6226331;23;20435;-91
2023/03/18 08:14:49;;;;;;;2.97;1.20;;;14.90;1.00;;;;;;6251236;23;20028;-93
2023/03/18 08:17:37;;;;;;;4.22;1.60;;;14.70;1.00;;;;;;6250076;23;20028;-91
2023/03/18 08:20:26;;;;;;;5.00;1.42;;;14.90;1.00;;;;;;6224874;23;20020;-87
2023/03/18 08:23:13;;;;;;;6.50;1.33;;;15.60;1.00;;;;;;6247598;23;20082;-91
2023/03/18 08:26:01;;;;;;;2.83;1.40;;;15.70;1.00;;;;;;6246136;23;20408;-89
2023/03/18 08:28:48;;;;;;;6.80;1.40;;;16.40;1.00;;;;;;6246013;23;20138;-90
2023/03/18 08:31:36;;;;;;;2.50;1.20;;;16.80;1.00;;;;;;6225704;23;20031;-89
2023/03/18 08:34:24;;;;;;;3.15;1.00;;;16.50;1.00;;;;;;6246454;23;20024;-92
2023/03/18 08:37:14;;;;;;;2.75;1.27;;;16.40;1.00;;;;;;6249103;23;20055;-90
2023/03/18 10:26:58;;;;;;;3.90;1.00;;;21.50;1.00;;;;;;6168066;23;20036;-94
2023/03/18 10:30:09;;;;;;;3.08;1.08;;;20.80;1.00;;;;;;6215672;23;20035;-93
2023/03/18 10:32:59;;;;;;;3.58;1.08;;;20.80;1.00;;;;;;6217224;23;20021;-92
2023/03/18 10:36:18;;;;;;;3.40;1.10;;;20.70;1.00;;;;;;6217606;23;20485;-91
2023/03/18 10:39:15;;;;;;;2.47;1.20;;;20.40;1.00;;;;;;6198707;23;20028;-92
2023/03/18 10:42:23;;;;;;;3.50;1.13;;;20.60;1.00;;;;;;6215121;23;20439;-91
2023/03/18 10:45:47;;;;;;;5.82;1.05;;;20.40;1.00;;;;;;6218264;23;20032;-92
2023/03/18 10:48:46;;;;;;;8.95;1.67;;;19.80;1.00;;;;;;6128293;23;20272;-93
2023/03/18 10:51:55;;;;;;;5.68;1.83;;;19.60;1.00;;;;;;6219198;23;20326;-90
2023/03/18 10:54:51;;;;;;;3.80;1.30;;;18.80;1.00;;;;;;6230992;23;20025;-91
2023/03/18 10:57:41;;;;;;;2.47;1.10;;;19.10;1.00;;;;;;6237170;22;20036;-90
2023/03/18 11:00:32;;;;;;;8.15;1.70;;;20.60;1.00;;;;;;6230287;23;20033;-90
2023/03/18 11:03:29;;;;;;;;;;;21.10;1.00;;;;;;6224964;23;20076;-91
2023/03/18 11:06:25;;;;;;;2.97;1.10;;;20.20;1.00;;;;;;6222089;23;19974;-88
2023/03/18 11:09:19;;;;;;;4.05;1.38;;;20.30;1.00;;;;;;6219795;23;20040;-93
2023/03/18 11:12:31;;;;;;;2.70;1.10;;;20.70;1.00;;;;;;6219653;23;20040;-92
2023/03/18 11:15:19;;;;;;;3.95;1.45;;;20.50;1.00;;;;;;6218783;23;20024;-87
2023/03/18 11:18:15;;;;;;;3.45;1.02;;;20.90;1.00;;;;;;6223394;23;20066;-91
2023/03/18 11:21:11;;;;;;;2.22;1.10;;;21.60;1.00;;;;;;6218828;23;20391;-91
2023/03/18 11:24:23;;;;;;;2.83;1.00;;;22.00;1.00;;;;;;6215643;23;20032;-91
2023/03/18 11:27:14;;;;;;;4.30;1.08;;;22.10;1.00;;;;;;6217980;23;20033;-93
2023/03/18 11:30:24;;;;;;;6.88;1.48;;;22.40;1.00;;;;;;6219361;23;20021;-92
2023/03/18 11:33:32;;;;;;;2.92;1.23;;;21.10;1.00;;;;;;6219658;23;20095;-93
2023/03/18 11:36:23;;;;;;;4.45;1.63;;;21.10;1.00;;;;;;6216965;23;20075;-92
2023/03/18 11:39:18;;;;;;;4.00;1.10;;;21.40;1.00;;;;;;6219185;23;20360;-88
2023/03/18 11:42:20;;;;;;;4.97;1.52;;;21.30;1.00;;;;;;6219427;23;20040;-90
2023/03/18 11:45:25;;;;;;;2.88;1.40;;;22.30;1.00;;;;;;6219275;23;20039;-92
2023/03/18 11:48:41;;;;;;;5.28;1.15;;;22.50;1.00;;;;;;6219448;23;20423;-90
2023/03/18 11:52:03;;;;;;;2.80;1.38;;;23.80;1.00;;;;;;6220167;23;20025;-88
2023/03/18 11:55:00;;;;;;;3.40;1.15;;;23.90;1.00;;;;;;6221521;23;20435;-91
2023/03/18 11:57:53;;;;;;;3.40;1.17;;;22.70;1.00;;;;;;6220905;23;20048;-91
2023/03/18 12:01:00;;;;;;;4.38;1.10;;;22.20;1.00;;;;;;6218054;23;20078;-92
2023/03/18 12:04:20;;;;;;;4.25;1.30;;;22.70;1.00;;;;;;6220764;23;20029;-92
2023/03/18 12:07:20;;;;;;;11.30;1.50;;;23.00;1.00;;;;;;6185091;23;20587;-90
2023/03/18 12:10:28;;;;;;;3.30;1.08;;;23.70;1.00;;;;;;6216442;23;20471;-91
2023/03/18 12:13:28;;;;;;;3.78;1.02;;;24.40;1.00;;;;;;6214674;23;20035;-91
2023/03/18 12:16:22;;;;;;;3.92;1.25;;;24.30;1.00;;;;;;6218830;23;20028;-90
2023/03/18 12:19:36;;;;;;;3.28;1.10;;;23.40;1.00;;;;;;6218177;23;20024;-86
2023/03/18 12:22:25;;;;;;;5.78;1.27;;;22.70;1.00;;;;;;6197626;23;20029;-90
2023/03/18 12:25:29;;;;;;;2.35;1.02;;;24.00;1.00;;;;;;6221734;23;20047;-91
2023/03/18 12:28:41;;;;;;;2.25;0.88;;;25.70;1.00;;;;;;6221791;23;20081;-90
2023/03/18 12:31:40;;;;;;;3.53;1.50;;;25.60;1.00;;;;;;6228764;23;20024;-87
2023/03/18 12:34:59;;;;;;;3.72;0.95;;;23.40;1.00;;;;;;6233220;23;20032;-89
2023/03/18 12:37:49;;;;;;;4.20;0.85;;;23.30;1.00;;;;;;6234961;23;20039;-90
2023/03/18 12:40:57;;;;;;;1.60;0.77;;;24.10;1.00;;;;;;6236241;23;20055;-89
2023/03/18 12:43:50;;;;;;;2.20;0.93;;;25.00;1.00;;;;;;6221671;23;20028;-91
2023/03/18 12:47:08;;;;;;;5.18;1.27;;;25.50;1.00;;;;;;6218672;23;20020;-90
2023/03/18 12:50:03;;;;;;;3.85;1.10;;;25.20;1.00;;;;;;6216473;23;20031;-90
2023/03/18 12:53:28;;;;;;;1.92;0.80;;;25.10;1.00;;;;;;6216973;23;20028;-90
2023/03/18 12:56:20;;;;;;;2.33;0.93;;;24.80;1.00;;;;;;6217301;23;20024;-89
2023/03/18 12:59:17;;;;;;;2.03;0.73;;;22.90;1.00;;;;;;6215964;23;20269;-90
2023/03/18 13:02:31;;;;;;;1.95;0.82;;;23.50;1.00;;;;;;6216992;23;20033;-90
2023/03/18 13:05:26;;;;;;;3.03;1.15;;;23.90;1.00;;;;;;6217346;23;20028;-90
2023/03/18 13:08:50;;;;;;;4.38;0.80;;;24.00;1.00;;;;;;6215254;23;20036;-91
2023/03/18 13:12:00;;;;;;;2.90;0.80;;;24.60;1.00;;;;;;6216974;23;20032;-87
2023/03/18 13:15:03;;;;;;;2.75;0.88;;;24.10;1.00;;;;;;6215978;23;20047;-92
2023/03/18 13:17:55;;;;;;;4.05;1.40;;;22.90;1.00;;;;;;6215699;23;20127;-90
2023/03/18 13:20:43;;;;;;;3.90;1.10;;;22.90;1.00;;;;;;6218908;23;20028;-89
2023/03/18 13:24:01;;;;;;;3.65;1.17;;;22.50;1.00;;;;;;6217862;23;20029;-90
2023/03/18 13:27:29;;;;;;;3.40;0.98;;;22.40;1.00;;;;;;6217722;23;20308;-92
2023/03/18 13:30:35;;;;;;;3.15;1.00;;;21.20;1.00;;;;;;6216749;23;20032;-90
2023/03/18 13:33:47;;;;;;;6.18;1.08;;;20.60;1.00;;;;;;6216468;23;20020;-90
2023/03/18 13:37:06;;;;;;;3.75;1.08;;;20.60;1.00;;;;;;6215601;23;20040;-89
2023/03/18 13:39:59;;;;;;;3.45;1.08;;;20.00;1.00;;;;;;6214270;23;20083;-90
2023/03/18 13:42:48;;;;;;;4.00;0.95;;;20.00;1.00;;;;;;6222138;23;20089;-91
2023/03/18 13:45:43;;;;;;;2.00;0.85;;;19.90;1.00;;;;;;6230001;23;20017;-92
2023/03/18 13:48:33;;;;;;;3.70;1.08;;;19.80;1.00;;;;;;6236114;23;20058;-92
2023/03/18 13:51:48;;;;;;;4.15;1.45;;;20.60;1.00;;;;;;6235046;23;20024;-87
2023/03/18 13:54:40;;;;;;;8.15;1.55;;;21.50;1.00;;;;;;6231877;23;20053;-87
2023/03/18 13:57:28;;;;;;;2.50;1.20;;;21.70;1.00;;;;;;6226098;23;20020;-93
2023/03/18 14:00:37;;;;;;;1.85;1.20;;;21.50;1.00;;;;;;6221198;23;20032;-88
2023/03/18 14:03:52;;;;;;;3.17;1.10;;;20.60;1.00;;;;;;6218292;23;20020;-92
2023/03/18 14:06:55;;;;;;;3.90;0.98;;;21.70;1.00;;;;;;6217313;23;20043;-90
2023/03/18 14:09:51;;;;;;;1.95;0.93;;;21.90;1.00;;;;;;6217203;23;20035;-91
2023/03/18 14:12:40;;;;;;;2.88;1.27;;;21.30;1.00;;;;;;6218145;23;20127;-89
2023/03/18 14:15:40;;;;;;;1.73;0.90;;;20.60;1.00;;;;;;6216760;23;20036;-89
2023/03/18 14:18:35;;;;;;;2.42;1.05;;;19.70;1.00;;;;;;6215940;23;20028;-88
2023/03/18 14:21:28;;;;;;;3.63;1.23;;;19.20;1.00;;;;;;6216046;23;20021;-92
2023/03/18 14:24:20;;;;;;;1.35;1.10;;;19.30;1.00;;;;;;6216677;23;20040;-92
2023/03/18 14:27:20;;;;;;;4.80;1.70;;;19.40;1.00;;;;;;6217364;23;20024;-88
2023/03/18 14:30:26;;;;;;;11.23;6.60;;;19.30;1.00;;;;;;6217996;23;20035;-93
2023/03/18 14:33:20;;;;;;;2.65;1.60;;;19.70;1.00;;;;;;6216068;23;20063;-90
2023/03/18 14:36:08;;;;;;;3.70;2.40;;;19.80;1.00;;;;;;6217873;23;20031;-92
2023/03/18 14:39:07;;;;;;;2.85;1.30;;;19.90;1.00;;;;;;6217987;23;20017;-93
2023/03/18 14:42:00;;;;;;;2.05;1.13;;;20.00;1.00;;;;;;6216506;23;20059;-90
2023/03/18 14:44:56;;;;;;;4.43;2.15;;;20.10;1.00;;;;;;6222822;23;20021;-93
2023/03/18 14:47:54;;;;;;;4.95;1.38;;;20.20;1.00;;;;;;6226316;23;20066;-89
2023/03/18 14:50:47;;;;;;;1.77;0.88;;;20.20;1.00;;;;;;6216311;23;20092;-92
2023/03/18 14:53:56;;;;;;;3.05;1.50;;;19.90;1.00;;;;;;6216608;23;20360;-91
2023/03/18 14:56:52;;;;;;;5.53;1.90;;;20.00;1.00;;;;;;6218433;23;20367;-92
2023/03/18 14:59:43;;;;;;;3.13;1.40;;;20.00;1.00;;;;;;6229013;23;20072;-91
2023/03/18 15:02:36;;;;;;;2.60;1.15;;;19.80;1.00;;;;;;6219776;23;20032;-91
2023/03/18 15:05:29;;;;;;;2.05;0.95;;;19.60;1.00;;;;;;6221764;23;20039;-91
2023/03/18 15:08:21;;;;;;;3.00;1.40;;;19.30;1.00;;;;;;6218398;23;20043;-89
2023/03/18 15:11:11;;;;;;;3.05;1.70;;;18.90;1.00;;;;;;6219143;23;20032;-92
2023/03/18 15:14:02;;;;;;;4.10;1.55;;;18.50;1.00;;;;;;6224243;23;20035;-93
2023/03/18 15:16:52;;;;;;;3.33;1.10;;;18.50;1.00;;;;;;6222183;23;20021;-91
2023/03/18 15:19:42;;;;;;;2.38;1.10;;;18.70;1.00;;;;;;6219337;23;20028;-91
2023/03/18 15:22:33;;;;;;;2.60;1.05;;;18.80;1.00;;;;;;6228830;23;20012;-87
2023/03/18 15:25:26;;;;;;;2.90;1.00;;;18.90;1.00;;;;;;6236628;23;20028;-90
2023/03/18 15:28:20;;;;;;;;;;;19.00;1.00;;;;;;6235820;23;20032;-92
2023/03/18 15:31:11;;;;;;;4.43;1.13;;;19.60;1.00;;;;;;6228051;23;19914;-93
2023/03/18 15:34:06;;;;;;;3.35;1.00;;;20.50;1.00;;;;;;6234442;23;20025;-92
2023/03/18 15:37:03;;;;;;;2.47;0.90;;;21.60;1.00;;;;;;6226590;23;20020;-93
2023/03/18 15:39:55;;;;;;;1.92;1.10;;;22.40;1.00;;;;;;6226479;23;20029;-90
2023/03/18 15:42:46;;;;;;;5.15;1.42;;;22.40;1.00;;;;;;6231472;23;20087;-90
2023/03/18 15:45:34;;;;;;;4.68;1.00;;;22.30;1.00;;;;;;6231984;23;20035;-91
2023/03/18 15:48:33;;;;;;;2.88;1.17;;;22.60;1.00;;;;;;6226640;23;20139;-93
2023/03/18 15:51:29;;;;;;;3.58;1.00;;;23.70;1.00;;;;;;6220567;23;20036;-89
2023/03/18 15:54:26;;;;;;;1.75;1.15;;;23.90;1.00;;;;;;6223723;23;20020;-89
2023/03/18 15:57:34;;;;;;;2.70;1.33;;;23.00;1.00;;;;;;6224656;23;20020;-89
2023/03/18 16:00:22;;;;;;;2.55;1.25;;;22.90;1.00;;;;;;6214829;23;20028;-91
2023/03/18 16:03:32;;;;;;;2.40;1.25;;;21.40;1.00;;;;;;6219499;23;20024;-90
2023/03/18 16:06:21;;;;;;;6.22;1.73;;;20.40;1.00;;;;;;6218617;23;20024;-91
2023/03/18 16:09:23;;;;;;;2.05;1.20;;;19.70;1.00;;;;;;6214613;23;20099;-91
2023/03/18 16:12:27;;;;;;;4.63;1.65;;;19.30;1.00;;;;;;6213973;23;20025;-92
2023/03/18 16:15:20;;;;;;;3.03;1.42;;;18.90;1.00;;;;;;6215950;23;20028;-92
2023/03/18 16:18:09;;;;;;;3.63;1.55;;;18.50;1.00;;;;;;6196906;23;20044;-90
2023/03/18 16:20:59;;;;;;;5.13;1.80;;;18.30;1.00;;;;;;6214639;23;20124;-91
2023/03/18 16:23:47;;;;;;;4.65;1.55;;;18.10;1.00;;;;;;6220322;23;20040;-90
2023/03/18 16:26:34;;;;;;;3.28;1.40;;;18.00;1.00;;;;;;6231329;23;20024;-92
2023/03/18 16:29:27;;;;;;;6.55;1.88;;;18.00;1.00;;;;;;6235576;23;20087;-90
2023/03/18 16:32:14;;;;;;;5.47;2.15;;;18.00;1.00;;;;;;6222632;23;20082;-91
2023/03/18 16:35:02;;;;;;;6.07;1.83;;;18.20;1.00;;;;;;6216827;23;20501;-90
2023/03/18 16:37:50;;;;;;;5.38;1.90;;;18.30;1.00;;;;;;6216551;23;20660;-92
2023/03/18 16:40:37;;;;;;;2.10;1.33;;;18.10;1.00;;;;;;6217567;23;20024;-89
2023/03/18 16:43:28;;;;;;;5.60;1.85;;;17.60;1.00;;;;;;6220821;23;20332;-90
2023/03/18 16:46:16;;;;;;;4.22;1.52;;;17.20;1.00;;;;;;6195287;23;20032;-91
2023/03/18 16:49:18;;;;;;;5.05;1.77;;;16.80;1.00;;;;;;6215708;23;20024;-91
2023/03/18 16:52:10;;;;;;;5.72;1.70;;;16.50;1.00;;;;;;6216378;23;20047;-91
2023/03/18 16:54:59;;;;;;;5.15;1.98;;;16.10;1.00;;;;;;6216550;23;20052;-91
2023/03/18 16:57:50;;;;;;;5.32;2.50;;;15.70;1.00;;;;;;6218781;23;20074;-90
2023/03/18 17:00:38;;;;;;;4.40;1.90;;;15.60;1.00;;;;;;6216072;23;20344;-92
2023/03/18 17:03:28;;;;;;;7.30;1.80;;;15.40;1.00;;;;;;6217078;23;20036;-90